Time;durP1;ratioP1;P1;durP2;ratioP2;P2;SDS_P1;SDS_P2;PMS_P1;PMS_P2;Temp;Humidity;BMP_temperature;BMP_pressure;BME280_temperature;BME280_humidity;BME280_pressure;Samples;Min_cycle;Max_cycle;Signal;HPM_P1;HPM_P2
2024/03/03 15:04:33;;;;;;;11.35;6.72;;;15.30;99.90;;;;;;2646331;53;20096;31
2024/03/03 15:07:11;;;;;;;16.75;9.52;;;15.30;99.90;;;;;;2606404;54;20033;31
2024/03/03 15:09:48;;;;;;;9.90;6.80;;;15.30;99.90;;;;;;2616312;46;20880;31
2024/03/03 15:12:23;;;;;;;7.80;4.85;;;15.20;99.90;;;;;;2606498;54;20053;31
2024/03/03 15:15:00;;;;;;;6.93;4.93;;;15.20;1.00;;;;;;2625492;46;20033;31
2024/03/03 15:17:38;;;;;;;9.98;4.00;;;15.30;1.00;;;;;;2607240;54;20030;31
2024/03/03 15:20:12;;;;;;;6.97;3.83;;;15.20;99.90;;;;;;2606789;54;20030;31
2024/03/03 15:22:52;;;;;;;5.22;3.60;;;15.20;1.00;;;;;;2607330;54;20738;31
2024/03/03 15:25:29;;;;;;;9.30;3.60;;;15.20;99.90;;;;;;2607073;54;20886;31
2024/03/03 15:28:05;;;;;;;10.37;5.17;;;15.10;99.90;;;;;;2607290;54;20828;31
2024/03/03 15:30:41;;;;;;;9.45;4.75;;;15.10;1.00;;;;;;2607100;54;20023;31
2024/03/03 15:33:19;;;;;;;8.80;4.20;;;15.10;1.00;;;;;;2607134;54;20845;31
2024/03/03 15:35:53;;;;;;;6.83;4.10;;;15.00;1.00;;;;;;2607068;54;20145;31
2024/03/03 15:38:32;;;;;;;6.50;3.70;;;15.00;1.00;;;;;;2607029;54;20038;31
2024/03/03 15:41:08;;;;;;;5.35;3.40;;;15.00;1.00;;;;;;2607142;54;20851;31
2024/03/03 15:43:45;;;;;;;7.85;5.20;;;15.00;31.40;;;;;;2607026;54;20023;31
2024/03/03 15:46:20;;;;;;;7.60;4.30;;;15.00;99.90;;;;;;2607061;54;20842;31
2024/03/03 15:48:58;;;;;;;7.27;4.13;;;15.00;99.90;;;;;;2607185;54;20133;31
2024/03/03 15:51:33;;;;;;;6.00;3.60;;;14.80;99.90;;;;;;2606769;54;20088;31
2024/03/03 15:54:16;;;;;;;5.40;3.55;;;14.90;99.90;;;;;;2607163;54;20779;31
2024/03/03 15:56:53;;;;;;;5.65;3.30;;;14.90;72.90;;;;;;2606477;54;20950;31
2024/03/03 15:59:29;;;;;;;6.95;3.90;;;14.90;99.90;;;;;;2607057;54;20877;31
2024/03/03 16:02:11;;;;;;;4.70;3.20;;;14.80;99.90;;;;;;2607070;54;20037;31
2024/03/03 16:04:49;;;;;;;6.47;3.80;;;14.80;99.90;;;;;;2606776;54;20097;31
2024/03/03 16:07:23;;;;;;;6.68;3.80;;;14.80;99.90;;;;;;2606824;54;20030;31
2024/03/03 16:10:03;;;;;;;4.70;4.13;;;14.80;99.90;;;;;;2606802;54;20034;31
2024/03/03 16:12:39;;;;;;;10.32;6.85;;;14.80;99.90;;;;;;2625712;46;20026;31
2024/03/03 16:15:18;;;;;;;16.50;10.63;;;14.70;99.90;;;;;;2622803;46;20026;31
2024/03/03 16:17:55;;;;;;;52.92;26.98;;;14.70;1.00;;;;;;2603268;54;20093;31
2024/03/03 16:20:32;;;;;;;84.25;35.38;;;14.70;50.60;;;;;;2603398;54;20820;31
2024/03/03 16:23:08;;;;;;;69.90;26.88;;;14.70;99.90;;;;;;2603450;54;20951;31
2024/03/03 16:25:47;;;;;;;50.58;20.67;;;14.60;99.90;;;;;;2603303;54;20959;31
2024/03/03 16:28:23;;;;;;;23.23;10.75;;;14.60;1.00;;;;;;2603380;54;20019;31
2024/03/03 16:31:00;;;;;;;27.35;13.13;;;14.60;1.00;;;;;;2603230;54;20018;31
2024/03/03 16:33:37;;;;;;;61.65;21.00;;;14.60;55.70;;;;;;2603212;54;20053;31
2024/03/03 16:36:14;;;;;;;20.52;11.88;;;14.50;99.90;;;;;;2603373;54;20049;31
2024/03/03 16:38:51;;;;;;;60.25;28.73;;;14.50;99.90;;;;;;2603388;54;20046;31
2024/03/03 16:41:31;;;;;;;22.00;11.90;;;14.50;99.90;;;;;;2610274;46;20030;31
2024/03/03 16:44:07;;;;;;;11.70;7.25;;;14.40;1.00;;;;;;2603404;54;20903;31
2024/03/03 16:46:42;;;;;;;9.10;5.65;;;14.40;1.00;;;;;;2603234;54;20089;31
2024/03/03 16:49:17;;;;;;;9.35;5.70;;;14.40;1.00;;;;;;2603116;54;20842;31
2024/03/03 16:51:52;;;;;;;9.50;5.10;;;14.30;32.20;;;;;;2603364;54;20861;31
2024/03/03 16:54:33;;;;;;;9.98;5.72;;;14.30;89.60;;;;;;2603225;54;20053;31
2024/03/03 16:57:16;;;;;;;8.40;5.80;;;14.30;99.90;;;;;;2603197;54;20963;31
2024/03/03 16:59:52;;;;;;;9.93;5.40;;;14.20;99.90;;;;;;2621636;46;20034;31
2024/03/03 17:02:26;;;;;;;;;;;14.20;99.90;;;;;;2621747;46;20033;31
2024/03/03 17:05:04;;;;;;;9.57;5.47;;;14.20;99.90;;;;;;2602848;54;19989;31
2024/03/03 17:07:39;;;;;;;10.25;6.22;;;14.10;99.90;;;;;;2603210;54;20935;31
2024/03/03 17:10:15;;;;;;;12.65;6.65;;;14.10;99.90;;;;;;2603019;54;20030;31
2024/03/03 17:12:55;;;;;;;10.02;6.38;;;14.00;99.90;;;;;;2602897;54;20061;31
2024/03/03 17:15:30;;;;;;;8.90;5.75;;;14.00;99.90;;;;;;2603077;54;20033;31
2024/03/03 17:18:04;;;;;;;;;;;13.90;99.90;;;;;;2720201;39;22379;31
2024/03/03 17:20:41;;;;;;;12.40;6.05;;;13.90;99.90;;;;;;2602862;54;20040;31
2024/03/03 17:23:17;;;;;;;10.55;6.32;;;13.90;99.90;;;;;;2603302;54;20030;31
2024/03/03 17:25:57;;;;;;;12.45;7.20;;;13.80;99.90;;;;;;2602858;54;20857;31
2024/03/03 17:28:36;;;;;;;16.40;8.35;;;13.80;99.90;;;;;;2603067;54;20893;31
2024/03/03 17:31:12;;;;;;;14.90;8.90;;;13.70;99.90;;;;;;2603284;54;20817;31
2024/03/03 17:33:50;;;;;;;14.05;8.05;;;13.70;1.00;;;;;;2603276;54;20861;31
2024/03/03 17:36:28;;;;;;;14.60;8.10;;;13.70;1.00;;;;;;2603180;54;21115;31
2024/03/03 17:39:04;;;;;;;12.90;8.77;;;13.60;1.00;;;;;;2621351;46;20113;31
2024/03/03 17:41:42;;;;;;;18.17;11.07;;;13.60;1.00;;;;;;2602861;54;20263;31
2024/03/03 17:44:20;;;;;;;19.40;12.38;;;13.60;1.00;;;;;;2602925;54;20036;31
2024/03/03 17:46:56;;;;;;;21.85;13.30;;;13.60;1.00;;;;;;2602877;54;20128;31
2024/03/03 17:49:31;;;;;;;;;;;13.50;1.00;;;;;;2603164;54;20857;31
2024/03/03 17:52:06;;;;;;;17.35;11.55;;;13.50;1.00;;;;;;2602854;54;20690;31
2024/03/03 17:54:43;;;;;;;16.85;10.90;;;13.40;1.00;;;;;;2603117;54;20089;31
2024/03/03 17:57:20;;;;;;;15.48;9.27;;;13.40;1.00;;;;;;2603046;54;20908;31
2024/03/03 17:59:58;;;;;;;17.73;11.30;;;13.40;1.00;;;;;;2621453;46;20030;31
2024/03/03 18:02:33;;;;;;;24.92;15.68;;;13.30;1.00;;;;;;2603030;54;20870;31
2024/03/03 18:05:11;;;;;;;14.10;8.13;;;13.30;1.00;;;;;;2602792;54;20030;31
2024/03/03 18:07:53;;;;;;;14.55;9.80;;;13.30;1.00;;;;;;2603124;54;20894;31
2024/03/03 18:10:29;;;;;;;15.63;9.93;;;13.20;1.00;;;;;;2603043;54;20929;31
2024/03/03 18:13:07;;;;;;;17.40;9.70;;;13.20;1.00;;;;;;2602159;54;20843;31
2024/03/03 18:15:48;;;;;;;13.60;8.90;;;13.30;1.00;;;;;;2602958;54;20905;31
2024/03/03 18:18:27;;;;;;;23.25;14.98;;;13.20;1.00;;;;;;2621575;46;20052;31
2024/03/03 18:21:08;;;;;;;14.52;8.45;;;13.10;1.00;;;;;;2602763;54;20022;31
2024/03/03 18:23:43;;;;;;;16.00;8.90;;;13.10;1.00;;;;;;2602929;54;20025;31
2024/03/03 18:26:26;;;;;;;13.40;8.50;;;13.10;1.00;;;;;;2602985;54;20019;31
2024/03/03 18:31:40;;;;;;;13.38;8.13;;;13.00;1.00;;;;;;2602336;54;20022;31
2024/03/03 18:34:19;;;;;;;14.50;8.77;;;13.00;1.00;;;;;;2602890;54;20942;31
2024/03/03 18:36:56;;;;;;;13.20;8.05;;;13.00;1.00;;;;;;2602852;54;20023;31
2024/03/03 18:39:37;;;;;;;14.25;8.23;;;12.90;1.00;;;;;;2602828;54;20941;31
2024/03/03 18:42:18;;;;;;;15.00;8.25;;;12.90;1.00;;;;;;2602867;54;20026;31
2024/03/03 18:44:56;;;;;;;13.88;8.07;;;12.90;1.00;;;;;;2602612;54;20089;31
2024/03/03 18:47:30;;;;;;;14.10;8.07;;;12.80;1.00;;;;;;2602817;54;20033;31
2024/03/03 18:50:19;;;;;;;13.27;7.93;;;12.80;1.00;;;;;;2621059;46;20050;31
2024/03/03 18:52:58;;;;;;;14.83;8.53;;;12.80;1.00;;;;;;2602760;54;20050;31
2024/03/03 18:55:38;;;;;;;17.83;9.30;;;12.80;1.00;;;;;;2621263;46;20117;31
2024/03/03 18:58:16;;;;;;;14.55;8.60;;;12.70;1.00;;;;;;2602801;54;20121;31
2024/03/03 19:00:53;;;;;;;15.07;8.82;;;12.70;1.00;;;;;;2601902;54;20034;31
2024/03/03 19:03:32;;;;;;;14.50;8.30;;;12.70;1.00;;;;;;2602937;54;20760;31
2024/03/03 19:06:14;;;;;;;13.73;8.65;;;12.70;1.00;;;;;;2602793;54;20906;31
2024/03/03 19:08:52;;;;;;;13.80;8.60;;;12.70;1.00;;;;;;2602699;54;20862;31
2024/03/03 19:11:31;;;;;;;14.73;8.90;;;12.60;1.00;;;;;;2602897;54;20030;31
2024/03/03 19:14:12;;;;;;;19.33;10.27;;;12.60;1.00;;;;;;2602720;54;20993;31
2024/03/03 19:16:47;;;;;;;17.55;9.50;;;12.60;1.00;;;;;;2602787;54;20832;31
2024/03/03 19:19:39;;;;;;;16.50;9.48;;;12.60;1.00;;;;;;2602693;54;20781;31
2024/03/03 19:22:21;;;;;;;17.23;10.32;;;12.60;1.00;;;;;;2602468;54;20026;31
2024/03/03 19:24:58;;;;;;;14.93;9.77;;;12.60;1.00;;;;;;2602800;54;20888;31
2024/03/03 19:27:34;;;;;;;17.45;10.40;;;12.50;1.00;;;;;;2602478;54;20026;31
2024/03/03 19:30:12;;;;;;;18.33;11.70;;;12.50;1.00;;;;;;2601694;54;20038;31
2024/03/03 19:32:53;;;;;;;18.30;11.32;;;12.50;1.00;;;;;;2602575;54;20026;31
2024/03/03 19:35:30;;;;;;;20.23;11.03;;;12.50;1.00;;;;;;2602410;54;20031;31
2024/03/03 19:38:12;;;;;;;19.80;10.80;;;12.50;1.00;;;;;;2602504;54;21128;31
2024/03/03 19:40:54;;;;;;;18.50;10.70;;;12.50;1.00;;;;;;2602361;54;20026;31
2024/03/03 19:43:34;;;;;;;21.55;11.95;;;12.40;1.00;;;;;;2604544;47;20117;31
2024/03/03 19:46:13;;;;;;;23.00;12.00;;;12.30;1.00;;;;;;2602457;54;20027;31
2024/03/03 19:48:54;;;;;;;19.92;12.88;;;12.40;1.00;;;;;;2602380;54;20026;31
2024/03/03 19:51:35;;;;;;;21.40;13.35;;;12.30;3.00;;;;;;2603275;54;20023;31
2024/03/03 19:54:21;;;;;;;20.37;12.63;;;12.30;4.40;;;;;;2621716;46;20023;31
2024/03/03 19:57:10;;;;;;;22.60;13.40;;;12.20;6.10;;;;;;2603527;54;20743;31
2024/03/03 19:59:48;;;;;;;24.10;14.10;;;12.20;8.30;;;;;;2603700;54;20030;31
2024/03/03 20:02:26;;;;;;;20.65;12.30;;;12.20;9.50;;;;;;2603228;54;20169;31
2024/03/03 20:05:08;;;;;;;23.65;14.55;;;12.20;11.10;;;;;;2603292;54;20964;31
2024/03/03 20:07:46;;;;;;;22.85;13.75;;;12.10;13.20;;;;;;2603196;54;20031;31
2024/03/03 20:10:26;;;;;;;20.35;13.50;;;12.20;14.20;;;;;;2603431;54;20054;31
2024/03/03 20:13:08;;;;;;;20.15;13.38;;;12.10;13.80;;;;;;2621475;46;20937;31
2024/03/03 20:15:48;;;;;;;21.98;14.07;;;12.10;15.10;;;;;;2621490;46;20064;31
2024/03/03 20:18:28;;;;;;;24.13;14.20;;;12.10;17.30;;;;;;2603520;54;20865;31
2024/03/03 20:21:08;;;;;;;21.73;13.73;;;12.10;20.20;;;;;;2602866;54;20964;31
2024/03/03 20:23:42;;;;;;;21.92;13.43;;;12.00;21.60;;;;;;2603273;54;20904;31
2024/03/03 20:26:24;;;;;;;23.52;14.00;;;12.00;22.40;;;;;;2603034;54;20030;31
2024/03/03 20:29:01;;;;;;;19.52;12.43;;;12.00;22.70;;;;;;2603131;54;20869;31
2024/03/03 20:31:36;;;;;;;21.52;13.25;;;12.00;22.70;;;;;;2701909;39;22394;31
2024/03/03 20:34:14;;;;;;;20.55;12.95;;;12.00;23.40;;;;;;2603181;54;20077;31
2024/03/03 20:36:54;;;;;;;22.02;12.88;;;12.00;24.60;;;;;;2603374;54;20870;31
2024/03/03 20:39:41;;;;;;;20.20;12.13;;;12.00;24.80;;;;;;2603067;54;21213;31
2024/03/03 20:42:33;;;;;;;21.70;13.23;;;12.00;26.50;;;;;;2603153;54;20893;31
2024/03/03 20:45:26;;;;;;;27.13;13.60;;;11.90;28.40;;;;;;2603161;54;20912;31
2024/03/03 20:48:03;;;;;;;26.70;14.32;;;11.90;28.30;;;;;;2603008;54;20023;31
2024/03/03 20:50:42;;;;;;;21.03;13.27;;;11.90;30.10;;;;;;2603153;54;20038;31
2024/03/03 20:53:22;;;;;;;35.50;20.65;;;11.90;31.20;;;;;;2603058;54;20049;31
2024/03/03 20:56:06;;;;;;;24.70;15.65;;;11.80;30.60;;;;;;2621516;46;20032;31
2024/03/03 20:58:50;;;;;;;25.15;15.93;;;11.80;31.70;;;;;;2603084;54;20042;31
2024/03/03 21:01:29;;;;;;;24.45;15.32;;;11.80;31.80;;;;;;2603206;54;20026;31
2024/03/03 21:04:08;;;;;;;26.10;16.02;;;11.80;32.90;;;;;;2602946;54;20034;31
2024/03/03 21:06:47;;;;;;;21.35;13.70;;;11.70;34.80;;;;;;2603063;54;21151;31
2024/03/03 21:09:24;;;;;;;23.25;13.35;;;11.70;35.50;;;;;;2621642;46;20022;31
2024/03/03 21:12:00;;;;;;;22.13;14.27;;;11.70;36.70;;;;;;2602165;54;20872;31
2024/03/03 21:14:39;;;;;;;21.65;14.07;;;11.60;36.90;;;;;;2602034;54;20932;31
2024/03/03 21:17:21;;;;;;;22.65;13.45;;;11.60;38.60;;;;;;2603225;54;20750;31
2024/03/03 21:20:03;;;;;;;20.83;12.35;;;11.60;40.50;;;;;;2602982;54;20036;31
2024/03/03 21:22:41;;;;;;;22.25;13.35;;;11.60;42.60;;;;;;2621687;46;20853;31
2024/03/03 21:25:20;;;;;;;;;;;11.50;44.70;;;;;;2603217;54;20030;31
2024/03/03 21:27:56;;;;;;;19.67;12.75;;;11.50;45.90;;;;;;2621502;46;20790;31
2024/03/03 21:30:36;;;;;;;25.10;13.35;;;11.50;46.40;;;;;;2602915;54;20033;31
2024/03/03 21:33:19;;;;;;;24.83;14.20;;;11.40;48.40;;;;;;2602852;54;20030;31
2024/03/03 21:35:58;;;;;;;21.37;12.33;;;11.40;48.80;;;;;;2603101;54;20914;31
2024/03/03 21:38:33;;;;;;;21.13;13.43;;;11.40;48.60;;;;;;2602797;54;20035;31
2024/03/03 21:41:10;;;;;;;21.15;13.57;;;11.40;50.30;;;;;;2621433;46;20026;31
2024/03/03 21:43:48;;;;;;;23.38;13.25;;;11.30;52.00;;;;;;2602140;54;20769;31
2024/03/03 21:46:32;;;;;;;19.95;12.10;;;11.30;51.90;;;;;;2621520;46;20023;31
2024/03/03 21:49:10;;;;;;;18.85;12.35;;;11.30;52.60;;;;;;2621374;46;20168;31
2024/03/03 21:51:46;;;;;;;29.73;15.52;;;11.30;52.70;;;;;;2602689;54;20860;31
2024/03/03 21:54:24;;;;;;;21.60;13.63;;;11.20;53.80;;;;;;2603064;54;20023;31
2024/03/03 21:57:02;;;;;;;27.05;15.05;;;11.20;53.60;;;;;;2601903;54;20041;31
2024/03/03 21:59:39;;;;;;;29.27;17.25;;;11.10;54.40;;;;;;2618844;46;20087;31
2024/03/03 22:02:20;;;;;;;33.77;19.53;;;11.10;55.10;;;;;;2608762;46;20030;31
2024/03/03 22:04:56;;;;;;;30.73;18.17;;;11.10;56.50;;;;;;2602669;54;20317;31
2024/03/03 22:07:33;;;;;;;26.73;17.50;;;11.10;57.10;;;;;;2602045;54;20889;31
2024/03/03 22:10:11;;;;;;;26.07;16.67;;;11.00;57.00;;;;;;2621254;46;20138;31
2024/03/03 22:12:47;;;;;;;24.80;16.20;;;11.00;59.70;;;;;;2621315;46;21069;31
2024/03/03 22:15:23;;;;;;;24.35;15.23;;;11.00;61.50;;;;;;2601846;54;20909;31
2024/03/03 22:18:02;;;;;;;22.23;14.02;;;10.90;60.40;;;;;;2602649;54;20037;31
2024/03/03 22:20:39;;;;;;;22.80;12.55;;;10.90;60.80;;;;;;2621343;46;20886;31
2024/03/03 22:23:16;;;;;;;22.40;13.55;;;10.90;62.00;;;;;;2601925;54;20089;31
2024/03/03 22:25:53;;;;;;;22.83;13.20;;;10.90;63.40;;;;;;2602564;54;20026;31
2024/03/03 22:28:29;;;;;;;20.88;12.10;;;10.80;65.40;;;;;;2602459;54;20026;31
2024/03/03 22:31:03;;;;;;;24.30;14.15;;;10.80;65.90;;;;;;2620993;46;21309;31
2024/03/03 22:33:44;;;;;;;24.53;14.30;;;10.80;66.60;;;;;;2602680;54;20026;31
2024/03/03 22:36:22;;;;;;;23.63;14.52;;;10.80;69.90;;;;;;2602768;54;20115;31
2024/03/03 22:38:56;;;;;;;25.05;14.15;;;10.70;72.70;;;;;;2602562;54;20030;31
2024/03/03 22:41:32;;;;;;;24.53;14.77;;;10.70;75.70;;;;;;2602429;54;20026;31
2024/03/03 22:44:09;;;;;;;24.27;15.10;;;10.60;76.40;;;;;;2618650;46;20059;31
2024/03/03 22:46:49;;;;;;;24.95;14.20;;;10.60;78.90;;;;;;2602575;54;20828;31
2024/03/03 22:49:33;;;;;;;22.50;14.40;;;10.60;79.80;;;;;;2602613;54;20030;31
2024/03/03 22:52:10;;;;;;;23.13;13.23;;;10.60;79.60;;;;;;2602501;54;20086;31
2024/03/03 22:54:46;;;;;;;26.60;16.10;;;10.50;81.10;;;;;;2601742;54;20301;31
2024/03/03 22:57:22;;;;;;;23.13;15.40;;;10.50;80.70;;;;;;2602630;54;21188;31
2024/03/03 23:00:00;;;;;;;26.48;15.40;;;10.40;80.10;;;;;;2602716;54;20850;31
2024/03/03 23:02:36;;;;;;;21.58;13.40;;;10.40;80.40;;;;;;2602451;54;20885;31
2024/03/03 23:05:19;;;;;;;24.93;15.87;;;10.40;81.40;;;;;;2621120;46;20026;31
2024/03/03 23:07:57;;;;;;;22.75;15.35;;;10.30;81.00;;;;;;2620971;47;21084;31
2024/03/03 23:10:36;;;;;;;23.77;14.93;;;10.30;81.40;;;;;;2602419;54;20034;31
2024/03/03 23:13:14;;;;;;;31.30;18.90;;;10.30;81.70;;;;;;2620707;47;20859;31
2024/03/03 23:18:24;;;;;;;34.63;27.15;;;10.20;83.00;;;;;;2602371;54;20030;31
2024/03/03 23:21:03;;;;;;;32.20;22.45;;;10.20;83.30;;;;;;2602416;54;20026;31
2024/03/03 23:23:42;;;;;;;25.70;16.30;;;10.20;83.10;;;;;;2602401;54;20026;31
2024/03/03 23:26:17;;;;;;;27.60;17.88;;;10.10;83.90;;;;;;2603198;54;20860;31
2024/03/03 23:28:55;;;;;;;27.83;17.73;;;10.10;85.60;;;;;;2603306;54;20100;31
2024/03/03 23:31:31;;;;;;;25.45;15.07;;;10.00;86.20;;;;;;2603016;54;21070;31
2024/03/03 23:34:08;;;;;;;26.55;15.25;;;10.00;85.40;;;;;;2603198;54;20034;31
2024/03/03 23:36:48;;;;;;;25.55;15.10;;;10.00;87.80;;;;;;2621591;46;20026;31
2024/03/03 23:39:25;;;;;;;24.25;13.80;;;9.90;89.50;;;;;;2602962;54;20034;31
2024/03/03 23:42:05;;;;;;;25.70;15.20;;;9.90;89.50;;;;;;2603285;54;20769;31
2024/03/03 23:44:43;;;;;;;26.55;14.60;;;9.90;87.00;;;;;;2603101;54;20806;31
2024/03/03 23:47:21;;;;;;;25.17;14.77;;;9.90;88.20;;;;;;2621990;46;20031;31
2024/03/03 23:49:59;;;;;;;22.98;14.30;;;9.80;90.80;;;;;;2603047;54;21135;31
2024/03/03 23:52:38;;;;;;;27.75;15.40;;;9.80;90.80;;;;;;2603011;54;20023;31
2024/03/03 23:55:15;;;;;;;28.70;14.48;;;9.70;91.40;;;;;;2602317;54;20077;31
2024/03/03 23:57:50;;;;;;;26.87;15.07;;;9.70;92.00;;;;;;2603245;54;20073;31
